Time;durP1;ratioP1;P1;durP2;ratioP2;P2;SDS_P1;SDS_P2;PMS_P1;PMS_P2;Temp;Humidity;BMP_temperature;BMP_pressure;BME280_temperature;BME280_humidity;BME280_pressure;Samples;Min_cycle;Max_cycle;Signal;HPM_P1;HPM_P2
2022/08/10 00:02:39;;;;;;;4.40;4.00;;;26.20;44.60;;;;;;5020654;28;20196;-79
2022/08/10 00:05:05;;;;;;;4.27;3.87;;;26.10;44.60;;;;;;5022691;28;20526;-80
2022/08/10 00:07:30;;;;;;;5.97;3.93;;;26.10;44.60;;;;;;5027691;28;20207;-79
2022/08/10 00:09:56;;;;;;;4.07;3.67;;;26.10;44.60;;;;;;5024837;28;20442;-80
2022/08/10 00:12:22;;;;;;;4.67;4.27;;;26.00;44.70;;;;;;5026285;28;20188;-80
2022/08/10 00:14:48;;;;;;;6.83;3.90;;;26.00;44.80;;;;;;5022451;28;20195;-82
2022/08/10 00:17:14;;;;;;;4.17;3.83;;;26.00;44.90;;;;;;5021230;28;20741;-80
2022/08/10 00:19:39;;;;;;;4.70;3.83;;;25.90;44.90;;;;;;5023195;28;20439;-80
2022/08/10 00:22:05;;;;;;;7.60;4.60;;;25.90;44.90;;;;;;5023317;28;20219;-80
2022/08/10 00:24:30;;;;;;;4.40;3.63;;;25.90;45.00;;;;;;5022409;28;20561;-80
2022/08/10 00:26:56;;;;;;;4.40;4.00;;;25.90;45.00;;;;;;5019437;28;20212;-80
2022/08/10 00:29:22;;;;;;;4.57;3.87;;;25.80;45.00;;;;;;5021390;28;20224;-80
2022/08/10 00:31:47;;;;;;;6.20;3.80;;;25.80;45.10;;;;;;5018463;28;20205;-78
2022/08/10 00:34:13;;;;;;;4.30;3.90;;;25.80;45.20;;;;;;5020122;28;20185;-79
2022/08/10 00:36:39;;;;;;;4.17;3.87;;;25.80;45.20;;;;;;5021153;28;20215;-80
2022/08/10 00:39:07;;;;;;;4.23;3.83;;;25.70;45.20;;;;;;5022393;28;20218;-80
2022/08/10 00:41:32;;;;;;;4.10;3.67;;;25.70;45.80;;;;;;5020448;28;20200;-79
2022/08/10 00:43:58;;;;;;;3.80;3.50;;;25.60;45.20;;;;;;5022059;28;20436;-80
2022/08/10 00:46:23;;;;;;;5.50;3.93;;;25.60;45.30;;;;;;5016065;28;21046;-80
2022/08/10 00:48:49;;;;;;;7.47;3.70;;;25.60;45.40;;;;;;5023136;28;21896;-80
2022/08/10 00:51:15;;;;;;;4.43;3.87;;;25.60;45.50;;;;;;5023655;28;20189;-81
2022/08/10 00:53:41;;;;;;;4.00;3.60;;;25.50;45.50;;;;;;5022057;28;20196;-80
2022/08/10 00:56:07;;;;;;;4.00;3.60;;;25.50;45.60;;;;;;5020691;28;20181;-79
2022/08/10 00:58:33;;;;;;;4.83;4.00;;;25.50;45.60;;;;;;5019378;28;20192;-80
2022/08/10 01:00:59;;;;;;;6.43;3.50;;;25.50;45.70;;;;;;5020619;28;20453;-80
2022/08/10 01:03:25;;;;;;;3.90;3.60;;;25.50;45.80;;;;;;5022339;28;20443;-80
2022/08/10 01:06:52;;;;;;;3.93;3.57;;;25.50;45.80;;;;;;5035432;28;20226;-79
2022/08/10 01:09:35;;;;;;;4.17;3.80;;;25.30;45.90;;;;;;4980451;28;21488;-79
2022/08/10 01:12:13;;;;;;;5.43;3.97;;;25.30;45.90;;;;;;5060496;28;20450;-80
2022/08/10 01:15:02;;;;;;;6.00;3.90;;;25.30;46.00;;;;;;5032346;28;20462;-79
2022/08/10 01:17:37;;;;;;;4.60;3.73;;;25.30;46.30;;;;;;5028197;28;20462;-79
2022/08/10 01:20:15;;;;;;;6.37;3.73;;;25.20;46.30;;;;;;5036297;28;20908;-81
2022/08/10 01:23:19;;;;;;;4.00;3.70;;;25.20;46.30;;;;;;5041307;28;20435;-80
2022/08/10 01:26:03;;;;;;;4.60;3.43;;;25.10;46.60;;;;;;5032236;28;20560;-80
2022/08/10 01:28:37;;;;;;;6.57;3.97;;;25.10;46.60;;;;;;5027220;28;20463;-78
2022/08/10 01:31:04;;;;;;;5.83;3.93;;;25.00;46.60;;;;;;5024450;28;20863;-80
2022/08/10 01:33:35;;;;;;;5.37;4.03;;;25.00;46.70;;;;;;5028469;28;21228;-80
2022/08/10 01:36:01;;;;;;;4.47;4.07;;;25.00;46.70;;;;;;5017256;28;20795;-80
2022/08/10 01:38:31;;;;;;;3.60;3.30;;;25.00;46.60;;;;;;5019744;28;20501;-80
2022/08/10 01:41:01;;;;;;;4.10;3.80;;;25.00;46.60;;;;;;5021119;28;20181;-79
2022/08/10 01:43:29;;;;;;;4.00;3.60;;;25.00;47.30;;;;;;5031023;28;20446;-79
2022/08/10 01:45:58;;;;;;;6.77;4.43;;;24.90;46.70;;;;;;5022728;28;20431;-80
2022/08/10 01:48:34;;;;;;;4.90;4.00;;;24.90;46.90;;;;;;5024091;28;22309;-80
2022/08/10 01:51:24;;;;;;;4.80;4.27;;;24.90;46.90;;;;;;5016515;28;20444;-79
2022/08/10 01:54:00;;;;;;;5.03;3.67;;;24.80;46.90;;;;;;5017864;28;20439;-79
2022/08/10 01:56:31;;;;;;;4.27;3.87;;;24.80;47.00;;;;;;5016340;28;20540;-79
2022/08/10 01:59:06;;;;;;;3.70;3.40;;;24.70;47.10;;;;;;5017765;28;20929;-79
2022/08/10 02:01:38;;;;;;;6.27;4.00;;;24.70;47.10;;;;;;5019019;28;20431;-80
2022/08/10 02:04:08;;;;;;;4.17;3.80;;;24.70;47.20;;;;;;5034040;28;20448;-79
2022/08/10 02:06:42;;;;;;;4.73;3.97;;;24.70;47.30;;;;;;5022072;28;20481;-79
2022/08/10 02:09:10;;;;;;;5.17;3.67;;;24.70;47.40;;;;;;5021128;28;20463;-79
2022/08/10 02:11:37;;;;;;;4.90;3.97;;;24.70;47.40;;;;;;5019055;28;20435;-79
2022/08/10 02:14:03;;;;;;;5.00;3.57;;;24.60;47.40;;;;;;5019589;28;21494;-79
2022/08/10 02:16:31;;;;;;;4.47;4.07;;;24.60;47.50;;;;;;5015316;28;21115;-79
2022/08/10 02:18:58;;;;;;;4.37;3.30;;;24.60;47.50;;;;;;5021562;28;20680;-79
2022/08/10 02:21:25;;;;;;;9.03;4.20;;;24.60;47.70;;;;;;5018022;28;20447;-79
2022/08/10 02:23:53;;;;;;;3.83;3.50;;;24.60;47.70;;;;;;5020628;28;20450;-79
2022/08/10 02:26:19;;;;;;;4.20;3.70;;;24.50;47.60;;;;;;5020165;28;20454;-80
2022/08/10 02:28:45;;;;;;;4.70;3.80;;;24.50;47.70;;;;;;5015894;28;20475;-80
2022/08/10 02:31:19;;;;;;;4.57;3.90;;;24.50;47.70;;;;;;5021893;28;20462;-80
2022/08/10 02:33:48;;;;;;;8.93;3.67;;;24.50;47.90;;;;;;5020015;28;20573;-79
2022/08/10 02:36:15;;;;;;;5.90;3.80;;;24.40;47.80;;;;;;5025229;28;20427;-79
2022/08/10 02:38:51;;;;;;;4.47;4.07;;;24.40;48.00;;;;;;5015584;28;20446;-79
2022/08/10 02:41:38;;;;;;;4.30;4.00;;;24.30;48.00;;;;;;5020677;28;20465;-80
2022/08/10 02:44:12;;;;;;;4.50;3.80;;;24.30;48.00;;;;;;5022193;28;20452;-80
2022/08/10 02:46:54;;;;;;;6.03;3.70;;;24.30;48.20;;;;;;5015717;28;20447;-79
2022/08/10 02:49:40;;;;;;;7.87;3.90;;;24.30;48.30;;;;;;5022494;28;20511;-80
2022/08/10 02:52:16;;;;;;;4.97;3.90;;;24.20;48.30;;;;;;5021408;28;20439;-80
2022/08/10 02:54:52;;;;;;;5.50;3.80;;;24.20;48.40;;;;;;5019167;28;20427;-80
2022/08/10 02:57:27;;;;;;;3.73;3.37;;;24.20;48.40;;;;;;5019020;28;20515;-80
2022/08/10 02:59:57;;;;;;;4.10;3.67;;;24.20;48.60;;;;;;5021813;28;20440;-80
2022/08/10 03:02:35;;;;;;;5.03;3.80;;;24.10;48.60;;;;;;5018638;28;20447;-80
2022/08/10 03:05:08;;;;;;;4.20;3.80;;;24.10;48.70;;;;;;5019005;28;20499;-80
2022/08/10 03:07:45;;;;;;;7.77;3.80;;;24.10;48.70;;;;;;5019735;28;20898;-80
2022/08/10 03:10:20;;;;;;;6.70;3.90;;;24.10;48.70;;;;;;5020544;28;20445;-80
2022/08/10 03:12:54;;;;;;;4.43;3.87;;;24.10;48.80;;;;;;5034908;28;20434;-80
2022/08/10 03:15:21;;;;;;;5.37;4.27;;;24.10;48.90;;;;;;5032895;28;20443;-80
2022/08/10 03:17:48;;;;;;;4.43;3.70;;;24.10;48.90;;;;;;5020339;28;20492;-80
2022/08/10 03:20:14;;;;;;;4.07;3.63;;;24.10;49.00;;;;;;5020876;28;20439;-80
2022/08/10 03:22:42;;;;;;;4.13;3.73;;;24.00;49.30;;;;;;5023268;28;20442;-82
2022/08/10 03:25:10;;;;;;;4.30;3.90;;;24.00;49.10;;;;;;5023920;28;20439;-81
2022/08/10 03:27:37;;;;;;;4.40;4.00;;;24.00;49.30;;;;;;5023188;28;20461;-80
2022/08/10 03:30:03;;;;;;;4.63;3.57;;;23.90;49.30;;;;;;5023276;28;20800;-80
2022/08/10 03:32:30;;;;;;;4.07;3.70;;;23.90;49.40;;;;;;5025921;28;20494;-80
2022/08/10 03:34:57;;;;;;;5.10;4.33;;;23.80;49.50;;;;;;5020081;28;20486;-80
2022/08/10 03:37:23;;;;;;;4.37;3.50;;;23.80;49.60;;;;;;5019139;28;20466;-81
2022/08/10 03:39:50;;;;;;;6.77;4.37;;;23.80;50.30;;;;;;5023386;28;20434;-80
2022/08/10 03:42:16;;;;;;;3.97;3.57;;;23.80;49.70;;;;;;5028997;28;20188;-81
2022/08/10 03:44:43;;;;;;;4.50;4.10;;;23.70;49.70;;;;;;5034206;28;20459;-81
2022/08/10 03:47:11;;;;;;;4.97;4.47;;;23.80;49.80;;;;;;5020028;28;20466;-82
2022/08/10 03:49:38;;;;;;;4.40;3.97;;;23.70;49.80;;;;;;5031195;28;21077;-81
2022/08/10 03:52:05;;;;;;;3.73;3.43;;;23.70;49.90;;;;;;5034556;28;21100;-80
2022/08/10 03:54:32;;;;;;;4.80;4.30;;;23.70;49.90;;;;;;5024119;28;20524;-79
2022/08/10 03:56:58;;;;;;;4.30;3.93;;;23.70;50.00;;;;;;5030916;28;20466;-81
2022/08/10 03:59:24;;;;;;;4.10;3.70;;;23.70;50.00;;;;;;5028402;28;20450;-80
2022/08/10 04:01:51;;;;;;;6.40;3.47;;;23.70;50.20;;;;;;5024306;28;20972;-80
2022/08/10 04:04:19;;;;;;;5.30;4.10;;;23.70;50.20;;;;;;5025880;28;20446;-79
2022/08/10 04:06:46;;;;;;;4.17;3.77;;;23.60;50.20;;;;;;5022506;28;20925;-78
2022/08/10 04:09:11;;;;;;;7.60;4.27;;;23.60;50.30;;;;;;5024711;28;20462;-78
2022/08/10 04:11:38;;;;;;;6.20;3.93;;;23.60;50.40;;;;;;5021633;28;20431;-78
2022/08/10 04:14:03;;;;;;;4.83;4.30;;;23.60;50.40;;;;;;5021540;28;20238;-79
2022/08/10 04:16:29;;;;;;;5.33;3.97;;;23.50;50.50;;;;;;5024745;28;20988;-79
2022/08/10 04:18:55;;;;;;;4.23;3.83;;;23.40;50.50;;;;;;5018689;28;20598;-79
2022/08/10 04:21:27;;;;;;;8.30;5.20;;;23.50;50.70;;;;;;5020098;28;20195;-79
2022/08/10 04:23:54;;;;;;;4.37;4.00;;;23.40;50.70;;;;;;5020129;28;20181;-80
2022/08/10 04:26:20;;;;;;;5.10;4.20;;;23.40;50.60;;;;;;5020504;28;20547;-80
2022/08/10 04:28:47;;;;;;;4.23;3.93;;;23.40;50.70;;;;;;5017138;28;20478;-79
2022/08/10 04:31:15;;;;;;;6.70;3.80;;;23.40;50.80;;;;;;5018608;28;21021;-79
2022/08/10 04:33:46;;;;;;;4.60;4.20;;;23.30;50.90;;;;;;5020390;28;20435;-80
2022/08/10 04:36:14;;;;;;;4.07;3.67;;;23.30;51.00;;;;;;5035997;28;20423;-79
2022/08/10 04:38:41;;;;;;;5.37;4.80;;;23.30;51.10;;;;;;5022076;28;20467;-79
2022/08/10 04:41:08;;;;;;;4.20;3.80;;;23.30;51.10;;;;;;5022081;28;20547;-81
2022/08/10 04:43:34;;;;;;;4.90;4.33;;;23.30;51.10;;;;;;5022479;28;20493;-81
2022/08/10 04:46:00;;;;;;;4.37;3.97;;;23.30;51.20;;;;;;5020744;28;20452;-80
2022/08/10 04:48:25;;;;;;;5.87;4.10;;;23.30;51.20;;;;;;5024038;28;20549;-80
2022/08/10 04:50:51;;;;;;;5.50;4.17;;;23.20;51.40;;;;;;5024100;28;20184;-80
2022/08/10 04:53:17;;;;;;;5.10;4.60;;;23.20;51.40;;;;;;5021651;28;22086;-79
2022/08/10 04:55:42;;;;;;;4.57;4.17;;;23.20;51.40;;;;;;5018282;28;20250;-79
2022/08/10 04:58:08;;;;;;;4.27;3.87;;;23.20;51.40;;;;;;5018958;28;20219;-79
2022/08/10 05:00:34;;;;;;;6.23;4.50;;;23.10;51.30;;;;;;5023321;28;20189;-79
2022/08/10 05:03:00;;;;;;;7.07;4.30;;;23.10;51.60;;;;;;5022316;28;20189;-79
2022/08/10 05:05:25;;;;;;;5.10;4.60;;;23.00;51.60;;;;;;5023518;28;20284;-79
2022/08/10 05:07:51;;;;;;;8.30;4.37;;;23.00;51.60;;;;;;5029411;28;20236;-80
2022/08/10 05:10:17;;;;;;;4.33;3.93;;;23.00;51.60;;;;;;5028629;28;20184;-80
2022/08/10 05:12:42;;;;;;;5.33;3.77;;;23.00;51.80;;;;;;5030085;28;20185;-80
2022/08/10 05:15:10;;;;;;;5.80;4.20;;;22.90;51.80;;;;;;5030603;28;20264;-79
2022/08/10 05:17:37;;;;;;;9.53;4.20;;;22.90;51.90;;;;;;5026749;28;20345;-79
2022/08/10 05:20:05;;;;;;;4.17;3.80;;;22.90;51.90;;;;;;5024437;28;20439;-79
2022/08/10 05:22:35;;;;;;;4.40;4.00;;;22.90;51.90;;;;;;5021426;28;20452;-79
2022/08/10 05:25:01;;;;;;;4.90;4.30;;;22.90;51.90;;;;;;5021829;28;20434;-79
2022/08/10 05:27:26;;;;;;;4.70;4.20;;;22.90;52.00;;;;;;5023000;28;20446;-79
2022/08/10 05:29:52;;;;;;;5.50;4.37;;;22.90;52.00;;;;;;5024415;28;20219;-79
2022/08/10 05:32:18;;;;;;;7.10;4.23;;;22.90;52.10;;;;;;5021299;28;20192;-79
2022/08/10 05:34:44;;;;;;;4.60;4.20;;;22.80;52.10;;;;;;5021700;28;20216;-79
2022/08/10 05:37:11;;;;;;;4.13;3.83;;;22.80;52.10;;;;;;5023023;28;20196;-79
2022/08/10 05:39:38;;;;;;;4.50;4.10;;;22.90;52.30;;;;;;5021315;28;20272;-79
2022/08/10 05:42:05;;;;;;;6.43;4.07;;;22.90;52.30;;;;;;5022809;28;20440;-78
2022/08/10 05:44:31;;;;;;;5.77;4.70;;;22.90;52.30;;;;;;5021057;28;20451;-80
2022/08/10 05:46:57;;;;;;;4.47;4.13;;;22.90;52.50;;;;;;5022365;28;20520;-79
2022/08/10 05:49:23;;;;;;;5.13;3.90;;;22.90;52.40;;;;;;5022180;28;20938;-79
2022/08/10 05:51:49;;;;;;;4.33;3.93;;;22.90;52.50;;;;;;5027189;28;20705;-81
2022/08/10 05:54:15;;;;;;;4.43;4.03;;;22.90;52.50;;;;;;5022286;28;20440;-80
2022/08/10 05:56:45;;;;;;;7.50;4.50;;;23.00;52.60;;;;;;5021439;28;20236;-76
2022/08/10 05:59:12;;;;;;;5.97;4.20;;;23.00;52.60;;;;;;5014984;28;21827;-77
2022/08/10 06:01:41;;;;;;;5.13;3.93;;;23.00;52.70;;;;;;5018746;28;20443;-76
2022/08/10 06:04:09;;;;;;;4.20;3.83;;;23.00;52.70;;;;;;5015247;28;20527;-77
2022/08/10 06:06:37;;;;;;;4.33;3.93;;;23.00;52.80;;;;;;5019629;28;20473;-80
2022/08/10 06:09:04;;;;;;;6.17;5.17;;;23.00;52.90;;;;;;5021597;28;20481;-84
2022/08/10 06:11:31;;;;;;;4.13;3.80;;;23.00;52.90;;;;;;5020266;28;20471;-78
2022/08/10 06:16:44;;;;;;;7.40;4.50;;;23.00;53.10;;;;;;5017857;28;20462;-78
2022/08/10 06:19:11;;;;;;;5.80;4.20;;;23.00;53.30;;;;;;5019764;28;20491;-78
2022/08/10 06:21:37;;;;;;;4.80;4.40;;;23.00;53.30;;;;;;5018273;28;20546;-78
2022/08/10 06:24:06;;;;;;;3.93;3.63;;;23.10;53.30;;;;;;5018576;28;20462;-79
2022/08/10 06:26:32;;;;;;;4.03;3.73;;;23.20;53.30;;;;;;5018367;28;20505;-81
2022/08/10 06:29:09;;;;;;;5.67;4.17;;;23.20;53.20;;;;;;5014651;28;20474;-80
2022/08/10 06:31:42;;;;;;;6.97;4.53;;;23.20;53.00;;;;;;5035525;28;20557;-79
2022/08/10 06:34:10;;;;;;;4.27;3.87;;;23.20;53.00;;;;;;5020043;28;21154;-79
2022/08/10 06:36:39;;;;;;;4.00;3.70;;;23.20;53.00;;;;;;5020603;28;20545;-79
2022/08/10 06:39:06;;;;;;;4.00;3.60;;;23.30;52.90;;;;;;5017473;28;20505;-80
2022/08/10 06:41:35;;;;;;;7.43;4.10;;;23.30;53.00;;;;;;5019063;28;20446;-80
2022/08/10 06:44:10;;;;;;;4.80;4.27;;;23.40;53.10;;;;;;5016634;28;21009;-80
2022/08/10 06:46:41;;;;;;;4.77;4.30;;;23.40;53.60;;;;;;5019139;28;20545;-79
2022/08/10 06:49:09;;;;;;;7.37;4.03;;;23.50;53.00;;;;;;5017727;28;21388;-79
2022/08/10 06:51:37;;;;;;;4.20;3.90;;;23.50;52.90;;;;;;5021438;28;20788;-81
2022/08/10 06:54:06;;;;;;;4.30;4.00;;;23.60;53.00;;;;;;5022752;28;21283;-79
2022/08/10 06:56:37;;;;;;;5.03;4.47;;;23.60;52.90;;;;;;5031661;28;20535;-77
2022/08/10 06:59:29;;;;;;;5.00;4.50;;;23.70;52.90;;;;;;5025766;28;20430;-77
2022/08/10 07:02:07;;;;;;;4.00;3.70;;;23.70;52.90;;;;;;5029662;28;20432;-77
2022/08/10 07:04:53;;;;;;;4.57;4.17;;;23.70;52.90;;;;;;5033304;28;20431;-78
2022/08/10 07:07:23;;;;;;;5.20;3.70;;;23.80;53.10;;;;;;5037011;28;20481;-77
2022/08/10 07:09:51;;;;;;;3.50;3.20;;;23.80;52.90;;;;;;5027952;28;20534;-79
2022/08/10 07:12:20;;;;;;;4.73;4.23;;;23.90;52.90;;;;;;5031517;28;20518;-79
2022/08/10 07:14:47;;;;;;;5.40;4.00;;;23.90;52.90;;;;;;5029851;28;20522;-78
2022/08/10 07:17:18;;;;;;;4.10;3.80;;;23.90;52.70;;;;;;5029408;28;20977;-78
2022/08/10 07:20:07;;;;;;;4.73;4.10;;;24.00;52.80;;;;;;5030185;28;20435;-78
2022/08/10 07:22:35;;;;;;;9.03;4.50;;;24.10;52.80;;;;;;5030764;28;20497;-77
2022/08/10 07:25:03;;;;;;;5.43;4.50;;;24.20;52.80;;;;;;5022657;28;20496;-77
2022/08/10 07:27:30;;;;;;;4.43;3.60;;;24.20;52.70;;;;;;5016905;28;20467;-76
2022/08/10 07:29:56;;;;;;;5.30;3.90;;;24.30;52.60;;;;;;5015491;28;20482;-75
2022/08/10 07:32:23;;;;;;;16.07;5.63;;;24.40;52.50;;;;;;5016005;28;20443;-83
2022/08/10 07:34:52;;;;;;;5.53;4.17;;;24.50;52.30;;;;;;5015621;28;20803;-75
2022/08/10 07:37:19;;;;;;;4.27;3.87;;;24.60;52.10;;;;;;5011691;28;20468;-75
2022/08/10 07:39:47;;;;;;;4.50;4.03;;;24.60;52.20;;;;;;5014066;28;20476;-75
2022/08/10 07:42:15;;;;;;;7.60;4.00;;;24.70;52.00;;;;;;5016092;28;20489;-75
2022/08/10 07:44:43;;;;;;;7.70;4.23;;;24.70;51.60;;;;;;5017291;28;20538;-75
2022/08/10 07:47:14;;;;;;;6.63;4.00;;;24.80;51.60;;;;;;5019438;28;20451;-75
2022/08/10 07:49:42;;;;;;;6.93;4.30;;;24.90;51.60;;;;;;5014094;28;20598;-75
2022/08/10 07:52:09;;;;;;;3.90;3.50;;;24.90;51.40;;;;;;5018249;28;20930;-75
2022/08/10 07:54:44;;;;;;;4.30;3.90;;;25.00;51.30;;;;;;5015143;28;20439;-75
2022/08/10 07:57:17;;;;;;;8.60;4.60;;;25.00;51.10;;;;;;5012697;28;20535;-75
2022/08/10 07:59:45;;;;;;;4.37;3.83;;;25.10;51.20;;;;;;5017250;28;20969;-74
2022/08/10 08:03:06;;;;;;;4.17;3.80;;;25.20;51.20;;;;;;5019621;28;20434;-74
2022/08/10 08:05:32;;;;;;;7.63;3.40;;;25.30;51.10;;;;;;5004595;28;20443;-75
2022/08/10 08:08:00;;;;;;;5.60;3.93;;;25.30;51.00;;;;;;5035341;28;20486;-74
2022/08/10 08:10:28;;;;;;;5.27;3.93;;;25.30;51.10;;;;;;5021959;28;20504;-74
2022/08/10 08:13:00;;;;;;;3.90;3.60;;;25.40;51.00;;;;;;5019307;28;20430;-75
2022/08/10 08:15:26;;;;;;;4.60;3.67;;;25.40;50.70;;;;;;5024062;28;20503;-77
2022/08/10 08:17:54;;;;;;;3.67;3.37;;;25.50;50.80;;;;;;5021744;28;20762;-74
2022/08/10 08:20:21;;;;;;;5.17;3.73;;;25.50;50.60;;;;;;5017895;28;20461;-74
2022/08/10 08:22:48;;;;;;;4.33;3.80;;;25.60;50.60;;;;;;5024561;28;21058;-75
2022/08/10 08:25:16;;;;;;;7.30;3.63;;;25.70;50.60;;;;;;5016252;28;20945;-74
2022/08/10 08:27:44;;;;;;;3.70;3.40;;;25.80;50.50;;;;;;5023885;28;20461;-75
2022/08/10 08:30:10;;;;;;;5.57;3.70;;;25.80;50.20;;;;;;5021016;28;20446;-74
2022/08/10 08:32:39;;;;;;;4.47;4.03;;;25.90;50.10;;;;;;5021651;28;20930;-74
2022/08/10 08:35:08;;;;;;;5.23;3.90;;;25.90;50.10;;;;;;5023944;28;20942;-74
2022/08/10 08:37:36;;;;;;;4.10;3.70;;;26.00;49.80;;;;;;5019452;28;20450;-74
2022/08/10 08:40:09;;;;;;;6.03;3.90;;;26.10;49.60;;;;;;5021087;28;20451;-75
2022/08/10 08:43:00;;;;;;;4.10;3.70;;;26.10;49.30;;;;;;5018517;28;20439;-75
2022/08/10 08:45:44;;;;;;;8.37;3.70;;;26.20;49.20;;;;;;5024241;28;20431;-75
2022/08/10 08:48:18;;;;;;;7.10;3.67;;;26.30;49.20;;;;;;5024959;28;20493;-75
2022/08/10 08:50:55;;;;;;;3.97;3.67;;;26.30;49.20;;;;;;5019149;28;20446;-75
2022/08/10 08:53:52;;;;;;;5.47;3.67;;;26.40;49.00;;;;;;5021518;28;20435;-75
2022/08/10 08:56:36;;;;;;;3.90;3.60;;;26.40;49.00;;;;;;5019128;28;20468;-76
2022/08/10 08:59:09;;;;;;;9.70;3.50;;;26.50;49.00;;;;;;5015391;28;20467;-75
2022/08/10 09:02:22;;;;;;;4.03;3.73;;;26.50;48.90;;;;;;5020439;28;21375;-74
2022/08/10 09:05:13;;;;;;;4.50;3.77;;;26.60;48.40;;;;;;4983309;28;20540;-76
2022/08/10 09:08:13;;;;;;;3.80;3.50;;;26.70;47.90;;;;;;5017885;28;20870;-76
2022/08/10 09:11:12;;;;;;;6.40;3.80;;;26.70;48.20;;;;;;5017960;28;20514;-77
2022/08/10 09:13:40;;;;;;;6.77;3.60;;;26.80;48.20;;;;;;5013864;28;20428;-76
2022/08/10 09:16:45;;;;;;;5.27;3.83;;;26.90;48.10;;;;;;5018524;28;20434;-76
2022/08/10 09:19:17;;;;;;;5.13;4.63;;;26.90;48.10;;;;;;4957404;28;20462;-76
2022/08/10 09:21:59;;;;;;;4.30;3.90;;;27.00;48.00;;;;;;5005745;28;20435;-76
2022/08/10 09:24:34;;;;;;;5.23;3.90;;;27.10;47.10;;;;;;5019591;28;20455;-76
2022/08/10 09:27:07;;;;;;;3.97;3.67;;;27.20;46.20;;;;;;5017636;28;20461;-75
2022/08/10 09:29:48;;;;;;;4.43;3.77;;;27.20;45.90;;;;;;5018469;28;20470;-76
2022/08/10 09:32:38;;;;;;;4.03;3.70;;;27.30;46.50;;;;;;5014353;28;20447;-76
2022/08/10 09:35:25;;;;;;;6.70;3.20;;;27.40;46.70;;;;;;5022577;28;20431;-76
2022/08/10 09:38:06;;;;;;;8.27;4.30;;;27.50;46.40;;;;;;5021045;28;20473;-76
2022/08/10 09:41:00;;;;;;;4.00;3.60;;;27.50;46.20;;;;;;5015133;28;20444;-76
2022/08/10 09:43:29;;;;;;;4.30;3.40;;;27.60;46.10;;;;;;5022237;28;20427;-76
2022/08/10 09:46:32;;;;;;;5.80;3.30;;;27.70;45.30;;;;;;5020975;28;20462;-75
2022/08/10 09:49:09;;;;;;;6.10;3.37;;;27.80;44.90;;;;;;5035576;28;21029;-77
2022/08/10 09:51:41;;;;;;;3.50;3.20;;;27.80;44.80;;;;;;5018892;28;20477;-76
2022/08/10 09:54:16;;;;;;;3.87;3.57;;;27.90;44.50;;;;;;5023829;28;20441;-77
2022/08/10 09:57:03;;;;;;;3.50;3.20;;;28.00;44.20;;;;;;5022558;28;20529;-75
2022/08/10 09:59:39;;;;;;;3.77;3.43;;;28.10;44.30;;;;;;5021538;28;20435;-75
2022/08/10 10:02:29;;;;;;;5.10;3.37;;;28.10;44.40;;;;;;5041856;28;21002;-74
2022/08/10 10:05:45;;;;;;;5.60;3.63;;;28.20;44.20;;;;;;5018324;28;20877;-74
2022/08/10 10:08:22;;;;;;;3.60;3.30;;;28.30;43.70;;;;;;5036883;28;20466;-77
2022/08/10 10:11:14;;;;;;;4.67;3.33;;;28.30;43.50;;;;;;5018684;28;20446;-76
2022/08/10 10:13:54;;;;;;;7.00;3.97;;;28.30;43.50;;;;;;5017260;28;20443;-76
2022/08/10 10:16:42;;;;;;;5.90;3.43;;;28.40;43.10;;;;;;5024979;28;20448;-75
2022/08/10 10:19:27;;;;;;;5.30;3.60;;;28.50;43.10;;;;;;5040737;28;20438;-76
2022/08/10 10:22:04;;;;;;;6.40;4.13;;;28.60;42.90;;;;;;5016465;28;20457;-76
2022/08/10 10:24:36;;;;;;;7.40;3.70;;;28.60;42.70;;;;;;5023725;28;20434;-76
2022/08/10 10:27:30;;;;;;;11.23;3.77;;;28.80;42.00;;;;;;5014297;28;20474;-76
2022/08/10 10:30:11;;;;;;;4.77;3.50;;;28.80;42.00;;;;;;5017705;28;20994;-76
2022/08/10 10:33:02;;;;;;;4.20;3.20;;;28.80;41.30;;;;;;5018396;28;20439;-75
2022/08/10 10:35:35;;;;;;;6.90;4.27;;;28.80;41.70;;;;;;5019456;28;20430;-75
2022/08/10 10:38:08;;;;;;;4.77;3.47;;;28.90;41.00;;;;;;5014625;28;20475;-75
2022/08/10 10:40:54;;;;;;;5.73;3.60;;;28.90;40.80;;;;;;5016962;28;20517;-77
2022/08/10 10:43:39;;;;;;;3.83;3.30;;;29.00;40.70;;;;;;5018064;28;20458;-77
2022/08/10 10:46:44;;;;;;;3.73;3.33;;;29.10;40.70;;;;;;5015098;28;20458;-76
2022/08/10 10:49:28;;;;;;;3.83;3.43;;;29.10;41.00;;;;;;5013763;28;20551;-76
2022/08/10 10:52:03;;;;;;;3.97;3.60;;;29.10;40.50;;;;;;5013414;28;20439;-75
2022/08/10 10:55:02;;;;;;;3.87;3.50;;;29.20;40.20;;;;;;5018196;28;20494;-75
2022/08/10 10:57:31;;;;;;;3.80;3.40;;;29.30;39.50;;;;;;5014880;28;20524;-75
2022/08/10 11:00:10;;;;;;;5.33;3.30;;;29.30;39.40;;;;;;5018244;28;20938;-74
2022/08/10 11:02:45;;;;;;;3.70;3.40;;;29.40;39.90;;;;;;5018063;28;20528;-74
2022/08/10 11:05:38;;;;;;;4.50;3.10;;;29.50;38.80;;;;;;5035528;28;20503;-75
2022/08/10 11:08:11;;;;;;;15.10;3.43;;;29.50;38.80;;;;;;5021878;28;21183;-75
2022/08/10 11:10:53;;;;;;;5.07;3.47;;;29.60;38.60;;;;;;5020150;28;20451;-75
2022/08/10 11:13:33;;;;;;;4.30;3.20;;;29.60;38.40;;;;;;5019527;28;20419;-75
2022/08/10 11:15:58;;;;;;;5.03;3.63;;;29.70;38.10;;;;;;5019651;28;20495;-74
2022/08/10 11:18:47;;;;;;;6.63;3.70;;;29.70;37.90;;;;;;5018546;28;20519;-75
2022/08/10 11:21:23;;;;;;;4.03;3.30;;;29.80;37.80;;;;;;5020642;28;20203;-75
2022/08/10 11:24:03;;;;;;;4.10;3.43;;;29.80;37.90;;;;;;5021249;28;21365;-75
2022/08/10 11:26:48;;;;;;;7.30;4.00;;;29.90;37.80;;;;;;5023833;28;20498;-75
2022/08/10 11:29:26;;;;;;;6.70;3.47;;;30.00;37.40;;;;;;5019418;28;20470;-76
2022/08/10 11:31:56;;;;;;;8.00;3.40;;;30.00;36.70;;;;;;5019693;28;20434;-76
2022/08/10 11:34:35;;;;;;;3.50;3.20;;;30.10;36.50;;;;;;5017585;28;21040;-75
2022/08/10 11:37:13;;;;;;;7.80;3.30;;;30.10;37.20;;;;;;5018808;28;20796;-75
2022/08/10 11:40:16;;;;;;;4.23;3.93;;;30.20;36.80;;;;;;5017748;28;20465;-76
2022/08/10 11:42:48;;;;;;;5.43;2.97;;;30.30;36.80;;;;;;5021800;28;20481;-76
2022/08/10 11:45:33;;;;;;;4.80;3.23;;;30.40;36.10;;;;;;5022737;28;20450;-75
2022/08/10 11:48:11;;;;;;;7.00;3.17;;;30.50;36.10;;;;;;5024782;28;20459;-75
2022/08/10 11:50:48;;;;;;;5.07;3.60;;;30.70;36.10;;;;;;5030304;28;20936;-76
2022/08/10 11:53:46;;;;;;;4.80;3.03;;;30.70;35.40;;;;;;5023951;28;20430;-76
2022/08/10 11:56:23;;;;;;;4.50;3.20;;;30.90;35.40;;;;;;5021408;28;20421;-76
2022/08/10 12:01:35;;;;;;;4.23;3.37;;;31.20;35.20;;;;;;5017315;28;20540;-76
2022/08/10 12:04:06;;;;;;;3.30;3.10;;;31.30;35.20;;;;;;5014003;28;20435;-77
2022/08/10 12:06:34;;;;;;;7.80;3.40;;;31.50;35.70;;;;;;5020996;28;20517;-75
2022/08/10 12:09:03;;;;;;;3.50;3.20;;;31.70;35.30;;;;;;5021059;28;20487;-75
2022/08/10 12:11:29;;;;;;;5.03;3.40;;;32.00;34.50;;;;;;5020938;28;20527;-75
2022/08/10 12:14:13;;;;;;;4.67;3.43;;;32.30;34.10;;;;;;5021391;28;21183;-74
2022/08/10 12:16:43;;;;;;;4.63;3.10;;;32.80;33.80;;;;;;5017450;28;20200;-75
2022/08/10 12:19:14;;;;;;;3.20;2.90;;;33.20;33.10;;;;;;5015613;28;20430;-75
2022/08/10 12:21:44;;;;;;;5.50;2.60;;;33.50;32.50;;;;;;5023069;28;20424;-77
2022/08/10 12:24:22;;;;;;;3.80;3.50;;;33.70;32.70;;;;;;5019994;28;20411;-75
2022/08/10 12:27:02;;;;;;;4.90;3.10;;;33.90;32.40;;;;;;5020265;28;20835;-77
2022/08/10 12:30:00;;;;;;;5.90;2.80;;;34.20;32.20;;;;;;5021058;28;21232;-75
2022/08/10 12:32:31;;;;;;;3.80;3.40;;;34.40;31.70;;;;;;5016332;28;20418;-75
2022/08/10 12:35:21;;;;;;;3.40;3.00;;;34.60;31.40;;;;;;5019144;28;20444;-77
2022/08/10 12:38:12;;;;;;;3.37;3.10;;;34.70;31.20;;;;;;5016889;28;20430;-76
2022/08/10 12:40:44;;;;;;;6.23;3.20;;;34.90;30.70;;;;;;5020271;28;20425;-76
2022/08/10 12:43:35;;;;;;;4.70;3.03;;;34.90;30.10;;;;;;5015359;28;20447;-75
2022/08/10 12:46:06;;;;;;;4.43;3.07;;;34.90;30.50;;;;;;5019083;28;21187;-77
2022/08/10 12:48:42;;;;;;;3.43;3.13;;;35.10;30.40;;;;;;5023665;28;21374;-76
2022/08/10 12:51:18;;;;;;;4.63;3.10;;;35.00;30.70;;;;;;5020825;28;20445;-76
2022/08/10 12:54:32;;;;;;;3.80;3.20;;;35.40;30.70;;;;;;5022789;28;20406;-76
2022/08/10 12:57:20;;;;;;;4.57;2.97;;;35.60;30.40;;;;;;4981739;28;21009;-76
2022/08/10 12:59:49;;;;;;;4.13;3.40;;;35.90;30.30;;;;;;4980934;28;20445;-76
2022/08/10 13:02:28;;;;;;;3.53;3.23;;;36.00;29.90;;;;;;5005786;28;20554;-75
2022/08/10 13:04:56;;;;;;;3.30;3.10;;;36.10;29.80;;;;;;5019139;28;20432;-76
2022/08/10 13:07:30;;;;;;;3.80;3.50;;;36.20;29.70;;;;;;5017728;28;20565;-76
2022/08/10 13:10:06;;;;;;;3.30;3.00;;;36.20;29.60;;;;;;5013569;28;20902;-76
2022/08/10 13:12:36;;;;;;;4.93;3.50;;;36.20;29.60;;;;;;5016283;28;20412;-75
2022/08/10 13:15:17;;;;;;;4.13;3.73;;;36.40;29.80;;;;;;5019178;28;20488;-76
2022/08/10 13:17:48;;;;;;;4.67;3.00;;;36.60;29.80;;;;;;5017907;28;20495;-76
2022/08/10 13:20:21;;;;;;;2.90;2.70;;;36.70;29.70;;;;;;5017658;28;20447;-75
2022/08/10 13:22:49;;;;;;;3.53;2.87;;;36.80;29.20;;;;;;5017205;28;20440;-76
2022/08/10 13:25:21;;;;;;;3.63;3.00;;;36.90;29.20;;;;;;5017459;28;21218;-75